Time;durP1;ratioP1;P1;durP2;ratioP2;P2;SDS_P1;SDS_P2;PMS_P1;PMS_P2;Temp;Humidity;BMP_temperature;BMP_pressure;BME280_temperature;BME280_humidity;BME280_pressure;Samples;Min_cycle;Max_cycle;Signal;HPM_P1;HPM_P2
2022/01/30 00:02:16;;;;;;;37.85;6.03;;;;;;;;;;5040697;28;20050;-61
2022/01/30 00:04:42;;;;;;;35.13;5.07;;;;;;;;;;5008677;28;20038;-62
2022/01/30 00:07:09;;;;;;;32.30;4.50;;;;;;;;;;5041211;28;20100;-62
2022/01/30 00:09:35;;;;;;;37.13;5.72;;;;;;;;;;5008394;28;20041;-62
2022/01/30 00:12:03;;;;;;;42.33;6.20;;;;;;;;;;5008312;28;20061;-64
2022/01/30 00:14:34;;;;;;;42.85;6.70;;;;;;;;;;4992242;28;20038;-62
2022/01/30 00:17:23;;;;;;;46.05;6.88;;;;;;;;;;5010174;28;20048;-62
2022/01/30 00:19:57;;;;;;;49.20;7.45;;;;;;;;;;5006872;28;20042;-62
2022/01/30 00:25:00;;;;;;;47.47;7.15;;;;;;;;;;5009952;28;20460;-62
2022/01/30 00:27:33;;;;;;;41.65;7.03;;;;;;;;;;5008391;28;20045;-62
2022/01/30 00:29:59;;;;;;;43.10;6.70;;;;;;;;;;5007635;28;20042;-63
2022/01/30 00:32:25;;;;;;;40.70;5.40;;;;;;;;;;5007716;28;20053;-63
2022/01/30 00:34:51;;;;;;;45.38;6.03;;;;;;;;;;5008663;28;20122;-63
2022/01/30 00:37:18;;;;;;;40.63;5.85;;;;;;;;;;5007978;28;20056;-62
2022/01/30 00:39:44;;;;;;;30.85;4.78;;;;;;;;;;5040698;28;20128;-62
2022/01/30 00:42:10;;;;;;;30.65;4.68;;;;;;;;;;5009116;28;20046;-63
2022/01/30 00:44:36;;;;;;;34.80;4.53;;;;;;;;;;5041366;28;20372;-63
2022/01/30 00:47:03;;;;;;;31.73;5.05;;;;;;;;;;5007735;28;20038;-62
2022/01/30 00:49:30;;;;;;;34.03;5.00;;;;;;;;;;5000365;28;20045;-62
2022/01/30 00:51:56;;;;;;;27.73;4.07;;;;;;;;;;5041463;28;20443;-62
2022/01/30 00:54:22;;;;;;;36.85;5.55;;;;;;;;;;5009276;28;20368;-62
2022/01/30 00:56:48;;;;;;;30.67;4.28;;;;;;;;;;5007484;28;20110;-63
2022/01/30 00:59:14;;;;;;;45.13;5.75;;;;;;;;;;5041164;28;20522;-62
2022/01/30 01:01:40;;;;;;;46.78;6.32;;;;;;;;;;5009066;28;20040;-61
2022/01/30 01:04:06;;;;;;;40.53;5.03;;;;;;;;;;5007634;28;20535;-64
2022/01/30 01:06:32;;;;;;;47.25;6.95;;;;;;;;;;5007424;28;20069;-62
2022/01/30 01:09:02;;;;;;;40.17;6.22;;;;;;;;;;4991837;28;20069;-63
2022/01/30 01:25:12;;;;;;;55.05;7.55;;;;;;;;;;5040071;28;20133;-62
2022/01/30 01:27:38;;;;;;;48.10;7.68;;;;;;;;;;5008978;28;20030;-63
2022/01/30 01:30:04;;;;;;;44.17;6.47;;;;;;;;;;5023430;28;20077;-64
2022/01/30 01:32:30;;;;;;;47.97;6.40;;;;;;;;;;5008774;28;20088;-64
2022/01/30 01:34:57;;;;;;;25.10;3.60;;;;;;;;;;5007150;28;20045;-62
2022/01/30 01:37:23;;;;;;;25.30;3.33;;;;;;;;;;5023289;28;20049;-63
2022/01/30 01:39:49;;;;;;;26.65;4.63;;;;;;;;;;5006991;28;20435;-63
2022/01/30 01:42:16;;;;;;;23.65;3.65;;;;;;;;;;5023546;28;20544;-63
2022/01/30 01:44:47;;;;;;;41.40;5.78;;;;;;;;;;5040970;28;20292;-63
2022/01/30 01:47:15;;;;;;;34.35;5.40;;;;;;;;;;5040304;28;20042;-63
2022/01/30 01:49:41;;;;;;;35.58;5.18;;;;;;;;;;5008189;28;20456;-63
2022/01/30 01:54:43;;;;;;;37.65;5.57;;;;;;;;;;5011348;28;20664;-63
2022/01/30 01:57:09;;;;;;;45.20;6.53;;;;;;;;;;5043903;28;20041;-63
2022/01/30 01:59:35;;;;;;;45.92;6.63;;;;;;;;;;4994465;28;20080;-63
2022/01/30 02:02:02;;;;;;;50.42;7.28;;;;;;;;;;4994572;28;20396;-64
2022/01/30 02:04:28;;;;;;;45.95;7.07;;;;;;;;;;5012232;28;20125;-63
2022/01/30 02:07:12;;;;;;;47.05;6.95;;;;;;;;;;5012001;28;20054;-63
2022/01/30 02:09:39;;;;;;;51.58;7.78;;;;;;;;;;5011989;28;20092;-63
2022/01/30 02:12:06;;;;;;;48.10;7.32;;;;;;;;;;5027325;28;20120;-63
2022/01/30 02:14:51;;;;;;;49.80;7.80;;;;;;;;;;5010376;28;20049;-63
2022/01/30 02:28:06;;;;;;;58.55;9.02;;;;;;;;;;5010493;28;20535;-63
2022/01/30 02:30:35;;;;;;;54.97;8.25;;;;;;;;;;5010289;28;20056;-63
2022/01/30 02:33:01;;;;;;;58.92;9.23;;;;;;;;;;5010116;28;20062;-64
2022/01/30 02:35:27;;;;;;;55.90;8.82;;;;;;;;;;5026475;28;20054;-63
2022/01/30 02:37:55;;;;;;;59.45;9.85;;;;;;;;;;5011703;28;20069;-63
2022/01/30 02:40:21;;;;;;;60.67;9.15;;;;;;;;;;5043367;28;20068;-62
2022/01/30 02:42:50;;;;;;;55.45;8.80;;;;;;;;;;5043382;28;20046;-63
2022/01/30 02:45:18;;;;;;;54.70;7.63;;;;;;;;;;5043154;28;20046;-62
2022/01/30 02:48:11;;;;;;;57.65;9.25;;;;;;;;;;5043476;28;20530;-63
2022/01/30 02:51:08;;;;;;;56.20;10.00;;;;;;;;;;5043090;28;20054;-62
2022/01/30 02:53:39;;;;;;;50.88;8.55;;;;;;;;;;5043596;28;20196;-63
2022/01/30 02:56:05;;;;;;;53.67;8.68;;;;;;;;;;5009228;28;20443;-63
2022/01/30 02:58:31;;;;;;;45.72;7.75;;;;;;;;;;5027092;28;20536;-63
2022/01/30 03:00:57;;;;;;;54.42;8.68;;;;;;;;;;5010008;28;20484;-63
2022/01/30 03:03:23;;;;;;;42.35;7.68;;;;;;;;;;5009764;28;20484;-63
2022/01/30 03:05:49;;;;;;;52.40;7.97;;;;;;;;;;5009862;28;20054;-63
2022/01/30 03:08:16;;;;;;;47.30;7.45;;;;;;;;;;5011501;28;20382;-63
2022/01/30 03:10:42;;;;;;;50.72;7.50;;;;;;;;;;5009802;28;20077;-63
2022/01/30 03:13:08;;;;;;;55.08;8.10;;;;;;;;;;5043372;28;20366;-63
2022/01/30 03:15:35;;;;;;;51.45;8.13;;;;;;;;;;5010964;28;20511;-62
2022/01/30 03:18:01;;;;;;;52.22;9.23;;;;;;;;;;5043298;28;20121;-62
2022/01/30 03:20:27;;;;;;;49.83;8.35;;;;;;;;;;5042227;28;20080;-62
2022/01/30 03:22:53;;;;;;;58.90;9.13;;;;;;;;;;5009807;28;20472;-62
2022/01/30 03:25:20;;;;;;;56.72;10.73;;;;;;;;;;4993249;28;20424;-62
2022/01/30 03:27:51;;;;;;;62.38;10.93;;;;;;;;;;5009788;28;20038;-62
2022/01/30 03:30:25;;;;;;;56.30;9.38;;;;;;;;;;4993330;28;20396;-62
2022/01/30 03:32:51;;;;;;;55.97;9.13;;;;;;;;;;5009523;28;20094;-63
2022/01/30 03:35:17;;;;;;;52.20;8.70;;;;;;;;;;5008963;28;20176;-62
2022/01/30 03:37:44;;;;;;;51.70;9.27;;;;;;;;;;5042926;28;20392;-64
2022/01/30 03:40:10;;;;;;;53.88;8.15;;;;;;;;;;5041911;28;20049;-62
2022/01/30 03:42:36;;;;;;;53.80;9.55;;;;;;;;;;5009790;28;20050;-61
2022/01/30 03:45:03;;;;;;;44.38;6.85;;;;;;;;;;5010640;28;20068;-62
2022/01/30 03:47:29;;;;;;;47.05;8.10;;;;;;;;;;5009211;28;20038;-62
2022/01/30 03:49:55;;;;;;;53.05;8.23;;;;;;;;;;5008480;28;20050;-62
2022/01/30 03:52:21;;;;;;;50.67;9.07;;;;;;;;;;5010644;28;20080;-62
2022/01/30 03:54:47;;;;;;;50.78;8.00;;;;;;;;;;5025926;28;20095;-62
2022/01/30 03:57:14;;;;;;;63.45;9.18;;;;;;;;;;5025656;28;20060;-61
2022/01/30 03:59:40;;;;;;;55.15;9.05;;;;;;;;;;5010049;28;20408;-63
2022/01/30 04:02:06;;;;;;;56.97;10.32;;;;;;;;;;5010351;28;20451;-62
2022/01/30 04:04:33;;;;;;;58.47;9.95;;;;;;;;;;5010310;28;20048;-62
2022/01/30 04:06:59;;;;;;;71.28;11.20;;;;;;;;;;5009113;28;20053;-62
2022/01/30 04:09:26;;;;;;;55.30;9.48;;;;;;;;;;5041214;28;20614;-62
2022/01/30 04:11:53;;;;;;;63.15;11.63;;;;;;;;;;5042143;28;20053;-62
2022/01/30 04:14:19;;;;;;;59.40;9.35;;;;;;;;;;5024371;28;20042;-62
2022/01/30 04:16:45;;;;;;;60.78;10.20;;;;;;;;;;5009218;28;20046;-62
2022/01/30 04:19:11;;;;;;;66.35;10.50;;;;;;;;;;5009941;28;20048;-62
2022/01/30 04:21:38;;;;;;;72.05;11.52;;;;;;;;;;5025355;28;20048;-62
2022/01/30 04:24:04;;;;;;;53.75;8.85;;;;;;;;;;5041163;28;20048;-63
2022/01/30 04:26:30;;;;;;;55.80;10.10;;;;;;;;;;5010172;28;20468;-61
2022/01/30 04:28:56;;;;;;;57.28;10.30;;;;;;;;;;5008782;28;20336;-62
2022/01/30 04:31:23;;;;;;;65.32;9.80;;;;;;;;;;5041171;28;20062;-62
2022/01/30 04:33:49;;;;;;;56.95;9.05;;;;;;;;;;5009895;28;20042;-62
2022/01/30 04:36:20;;;;;;;49.55;8.68;;;;;;;;;;4992241;28;20056;-62
2022/01/30 04:38:58;;;;;;;60.53;9.30;;;;;;;;;;5042016;28;20088;-62
2022/01/30 05:02:25;;;;;;;43.40;7.47;;;;;;;;;;5041548;28;20607;-62
2022/01/30 05:05:07;;;;;;;47.53;7.53;;;;;;;;;;5009681;28;20045;-62
2022/01/30 05:07:36;;;;;;;43.88;7.43;;;;;;;;;;5008556;28;20053;-62
2022/01/30 05:10:02;;;;;;;50.70;7.88;;;;;;;;;;5009291;28;20037;-62
2022/01/30 05:12:36;;;;;;;46.25;7.43;;;;;;;;;;4992308;28;20046;-62
2022/01/30 05:15:02;;;;;;;59.22;9.10;;;;;;;;;;5007886;28;20045;-62
2022/01/30 05:17:28;;;;;;;46.28;7.50;;;;;;;;;;5024787;28;20045;-61
2022/01/30 05:19:54;;;;;;;53.95;8.43;;;;;;;;;;5007528;28;20102;-62
2022/01/30 05:22:20;;;;;;;51.75;8.95;;;;;;;;;;5009881;28;20502;-62
2022/01/30 05:24:46;;;;;;;48.08;7.68;;;;;;;;;;5009381;28;20042;-61
2022/01/30 05:27:13;;;;;;;51.85;8.50;;;;;;;;;;5012098;28;20041;-62
2022/01/30 05:29:39;;;;;;;37.92;6.65;;;;;;;;;;5011348;28;20041;-62
2022/01/30 05:32:05;;;;;;;35.90;6.40;;;;;;;;;;5044881;28;20053;-61
2022/01/30 05:34:31;;;;;;;51.05;8.07;;;;;;;;;;5013733;28;20427;-62
2022/01/30 05:36:58;;;;;;;56.03;8.68;;;;;;;;;;5012328;28;20046;-62
2022/01/30 05:39:24;;;;;;;53.58;9.30;;;;;;;;;;5011454;28;20538;-61
2022/01/30 05:41:50;;;;;;;58.90;9.15;;;;;;;;;;5044806;28;20049;-62
2022/01/30 05:44:20;;;;;;;60.63;9.63;;;;;;;;;;5044515;28;20038;-62
2022/01/30 05:46:53;;;;;;;56.50;8.25;;;;;;;;;;5011590;28;20336;-62
2022/01/30 05:49:20;;;;;;;60.33;9.18;;;;;;;;;;5012604;28;20041;-62
2022/01/30 05:51:46;;;;;;;65.07;9.98;;;;;;;;;;5013391;28;20046;-62
2022/01/30 05:54:12;;;;;;;54.28;8.65;;;;;;;;;;5012581;28;20080;-61
2022/01/30 05:56:38;;;;;;;61.35;9.85;;;;;;;;;;4995050;28;20133;-62
2022/01/30 05:59:05;;;;;;;60.45;9.85;;;;;;;;;;5027443;28;20054;-62
2022/01/30 06:01:31;;;;;;;56.13;9.27;;;;;;;;;;5011355;28;20041;-63
2022/01/30 06:03:57;;;;;;;53.38;8.57;;;;;;;;;;5012562;28;20042;-62
2022/01/30 06:06:23;;;;;;;59.88;9.80;;;;;;;;;;4995253;28;20107;-62
2022/01/30 06:09:11;;;;;;;55.60;8.30;;;;;;;;;;5010883;28;20042;-62
2022/01/30 06:11:37;;;;;;;56.80;8.95;;;;;;;;;;5011624;28;20029;-62
2022/01/30 06:14:03;;;;;;;54.10;7.88;;;;;;;;;;5044236;28;20374;-62
2022/01/30 06:16:29;;;;;;;72.72;10.38;;;;;;;;;;5012678;28;20050;-62
2022/01/30 06:18:55;;;;;;;68.00;11.68;;;;;;;;;;5010728;28;20154;-63
2022/01/30 06:21:21;;;;;;;57.83;9.02;;;;;;;;;;5011282;28;20053;-62
2022/01/30 06:23:48;;;;;;;52.35;8.27;;;;;;;;;;5010693;28;20038;-62
2022/01/30 06:26:14;;;;;;;57.22;9.05;;;;;;;;;;5044317;28;20132;-62
2022/01/30 06:28:40;;;;;;;55.38;9.10;;;;;;;;;;5010714;28;20053;-63
2022/01/30 06:31:06;;;;;;;63.38;9.60;;;;;;;;;;5043535;28;20092;-62
2022/01/30 06:33:32;;;;;;;55.00;9.27;;;;;;;;;;5010633;28;20121;-62
2022/01/30 06:35:58;;;;;;;70.43;11.30;;;;;;;;;;5026141;28;20154;-61
2022/01/30 06:38:24;;;;;;;36.50;6.32;;;;;;;;;;5011822;28;20492;-62
2022/01/30 06:40:50;;;;;;;44.25;5.35;;;;;;;;;;5043698;28;20054;-62
2022/01/30 06:43:16;;;;;;;23.50;5.60;;;;;;;;;;5043797;28;20042;-62
2022/01/30 06:45:43;;;;;;;32.33;5.35;;;;;;;;;;4994122;28;20041;-62
2022/01/30 06:48:09;;;;;;;35.63;4.57;;;;;;;;;;5043788;28;20492;-62
2022/01/30 06:50:35;;;;;;;36.78;5.35;;;;;;;;;;5026566;28;20041;-61
2022/01/30 06:53:01;;;;;;;36.08;4.50;;;;;;;;;;5043941;28;20052;-61
2022/01/30 06:55:27;;;;;;;41.90;5.93;;;;;;;;;;5010601;28;20077;-62
2022/01/30 06:57:53;;;;;;;44.17;7.32;;;;;;;;;;5026686;28;20148;-63
2022/01/30 07:00:19;;;;;;;48.05;7.82;;;;;;;;;;5012131;28;20399;-62
2022/01/30 07:02:45;;;;;;;35.40;5.72;;;;;;;;;;5009940;28;20480;-62
2022/01/30 07:05:11;;;;;;;46.58;7.20;;;;;;;;;;5010665;28;20100;-62
2022/01/30 07:07:37;;;;;;;36.47;6.22;;;;;;;;;;5042907;28;20034;-62
2022/01/30 07:10:06;;;;;;;38.50;6.50;;;;;;;;;;5011563;28;20045;-62
2022/01/30 07:12:32;;;;;;;46.03;6.40;;;;;;;;;;5010006;28;20045;-62
2022/01/30 07:14:58;;;;;;;35.45;6.38;;;;;;;;;;5043329;28;20092;-62
2022/01/30 07:17:24;;;;;;;40.08;6.00;;;;;;;;;;5026132;28;20564;-62
2022/01/30 07:19:50;;;;;;;47.50;7.57;;;;;;;;;;4993216;28;20088;-63
2022/01/30 07:22:16;;;;;;;37.75;5.85;;;;;;;;;;5042441;28;20443;-62
2022/01/30 07:24:42;;;;;;;49.30;7.78;;;;;;;;;;5026764;28;20513;-62
2022/01/30 07:27:09;;;;;;;49.25;8.57;;;;;;;;;;5042106;28;20253;-63
2022/01/30 07:29:35;;;;;;;44.40;8.13;;;;;;;;;;5009801;28;20038;-62
2022/01/30 07:32:01;;;;;;;55.50;8.50;;;;;;;;;;5042452;28;20568;-62
2022/01/30 07:34:27;;;;;;;50.88;9.30;;;;;;;;;;5009916;28;20042;-63
2022/01/30 07:36:57;;;;;;;59.50;10.48;;;;;;;;;;5010760;28;20474;-62
2022/01/30 07:39:27;;;;;;;54.05;8.85;;;;;;;;;;4993788;28;20050;-63
2022/01/30 07:41:53;;;;;;;66.55;11.45;;;;;;;;;;5041923;28;20046;-62
2022/01/30 07:44:20;;;;;;;51.30;8.70;;;;;;;;;;5042870;28;20057;-62
2022/01/30 07:46:46;;;;;;;56.22;10.80;;;;;;;;;;5010592;28;20042;-62
2022/01/30 07:49:12;;;;;;;62.33;9.75;;;;;;;;;;5009207;28;20085;-62
2022/01/30 07:51:38;;;;;;;59.55;10.00;;;;;;;;;;5042683;28;20469;-62
2022/01/30 07:54:04;;;;;;;57.25;9.05;;;;;;;;;;5010033;28;20115;-62
2022/01/30 07:56:30;;;;;;;61.75;9.80;;;;;;;;;;5009069;28;20037;-62
2022/01/30 07:58:56;;;;;;;49.40;8.98;;;;;;;;;;5042221;28;20092;-62
2022/01/30 08:01:22;;;;;;;53.53;9.00;;;;;;;;;;5009291;28;20054;-61
2022/01/30 08:03:48;;;;;;;57.00;9.50;;;;;;;;;;5025342;28;20447;-62
2022/01/30 08:06:15;;;;;;;55.63;8.90;;;;;;;;;;5008887;28;20054;-62
2022/01/30 08:08:41;;;;;;;52.20;8.90;;;;;;;;;;4992835;28;20052;-63
2022/01/30 08:11:10;;;;;;;61.47;10.10;;;;;;;;;;5010633;28;20381;-62
2022/01/30 08:13:36;;;;;;;61.85;9.48;;;;;;;;;;5041853;28;20045;-62
2022/01/30 08:16:02;;;;;;;65.22;10.07;;;;;;;;;;5008716;28;20487;-63
2022/01/30 08:18:29;;;;;;;55.92;10.55;;;;;;;;;;5010371;28;20121;-63
2022/01/30 08:20:55;;;;;;;68.78;10.88;;;;;;;;;;5009937;28;20041;-62
2022/01/30 08:23:23;;;;;;;55.45;9.90;;;;;;;;;;5010345;28;20138;-63
2022/01/30 08:25:49;;;;;;;64.10;10.75;;;;;;;;;;5041336;28;20456;-63
2022/01/30 08:28:15;;;;;;;46.20;7.30;;;;;;;;;;5042348;28;20085;-61
2022/01/30 08:30:42;;;;;;;51.70;9.07;;;;;;;;;;5009997;28;20120;-62
2022/01/30 08:33:08;;;;;;;47.47;7.78;;;;;;;;;;5009680;28;20058;-63
2022/01/30 08:35:34;;;;;;;51.80;7.68;;;;;;;;;;5010024;28;20057;-62
2022/01/30 08:38:01;;;;;;;44.40;7.10;;;;;;;;;;4991771;28;20049;-63
2022/01/30 08:40:27;;;;;;;45.40;6.88;;;;;;;;;;5008492;28;20080;-62
2022/01/30 08:42:53;;;;;;;42.92;7.15;;;;;;;;;;5008873;28;20037;-62
2022/01/30 08:45:21;;;;;;;47.70;7.72;;;;;;;;;;5008571;28;20060;-62
2022/01/30 08:47:47;;;;;;;46.20;7.25;;;;;;;;;;5009323;28;20029;-62
2022/01/30 08:50:15;;;;;;;49.97;8.57;;;;;;;;;;5007995;28;20046;-62
2022/01/30 08:52:42;;;;;;;46.53;7.85;;;;;;;;;;5007905;28;20049;-61
2022/01/30 08:55:09;;;;;;;53.88;8.40;;;;;;;;;;5040521;28;20034;-62
2022/01/30 08:57:35;;;;;;;57.88;8.30;;;;;;;;;;5024470;28;20045;-61
2022/01/30 09:00:01;;;;;;;59.92;9.52;;;;;;;;;;5007372;28;20078;-61
2022/01/30 09:02:27;;;;;;;60.45;9.05;;;;;;;;;;5008914;28;20437;-62
2022/01/30 09:04:53;;;;;;;54.42;9.27;;;;;;;;;;5008963;28;20045;-62
2022/01/30 09:07:20;;;;;;;51.25;8.13;;;;;;;;;;5009306;28;20405;-63
2022/01/30 09:09:46;;;;;;;52.80;8.88;;;;;;;;;;5008697;28;20084;-63
2022/01/30 09:12:13;;;;;;;61.22;9.93;;;;;;;;;;5009124;28;20042;-63
2022/01/30 09:14:41;;;;;;;51.47;8.88;;;;;;;;;;5007228;28;20369;-62
2022/01/30 09:17:12;;;;;;;61.60;10.30;;;;;;;;;;5006871;28;20042;-62
2022/01/30 09:19:40;;;;;;;64.47;9.63;;;;;;;;;;5007975;28;20048;-62
2022/01/30 09:22:06;;;;;;;56.58;9.32;;;;;;;;;;5006961;28;20129;-62
2022/01/30 09:24:32;;;;;;;53.63;8.88;;;;;;;;;;4991049;28;20034;-62
2022/01/30 09:26:58;;;;;;;55.50;9.90;;;;;;;;;;5039873;28;21150;-62
2022/01/30 09:29:25;;;;;;;47.22;8.65;;;;;;;;;;5006734;28;20121;-62
2022/01/30 09:31:51;;;;;;;55.63;9.00;;;;;;;;;;5023579;28;20053;-62
2022/01/30 09:34:17;;;;;;;58.35;9.85;;;;;;;;;;5008721;28;20049;-62
2022/01/30 09:36:43;;;;;;;59.78;9.02;;;;;;;;;;4991388;28;20381;-62
2022/01/30 09:39:09;;;;;;;62.03;10.13;;;;;;;;;;5006954;28;20120;-60
2022/01/30 09:41:36;;;;;;;49.15;8.65;;;;;;;;;;5008981;28;20508;-62
2022/01/30 09:44:02;;;;;;;60.72;9.57;;;;;;;;;;5010509;28;20137;-62
2022/01/30 09:46:29;;;;;;;62.05;9.30;;;;;;;;;;5039753;28;20084;-62
2022/01/30 09:48:55;;;;;;;52.15;7.45;;;;;;;;;;5006392;28;20041;-61
2022/01/30 09:51:22;;;;;;;53.53;9.38;;;;;;;;;;5005805;28;20053;-62
2022/01/30 09:53:48;;;;;;;52.25;9.23;;;;;;;;;;5007678;28;20041;-62
2022/01/30 09:56:16;;;;;;;46.05;8.30;;;;;;;;;;5011549;28;20041;-63
2022/01/30 09:58:42;;;;;;;43.72;8.80;;;;;;;;;;4989548;28;20081;-61
2022/01/30 10:01:09;;;;;;;46.20;8.43;;;;;;;;;;5006261;28;20073;-62
2022/01/30 10:03:35;;;;;;;55.20;9.10;;;;;;;;;;5007945;28;20080;-62
2022/01/30 10:06:08;;;;;;;55.20;9.07;;;;;;;;;;5005466;28;20049;-62
2022/01/30 10:08:41;;;;;;;52.80;9.10;;;;;;;;;;5006913;28;20038;-62
2022/01/30 10:11:26;;;;;;;50.15;8.73;;;;;;;;;;5006044;28;20064;-62
2022/01/30 10:14:16;;;;;;;54.28;9.10;;;;;;;;;;5008230;28;20121;-63
2022/01/30 10:16:42;;;;;;;54.30;9.07;;;;;;;;;;5010920;28;20044;-62
2022/01/30 10:19:23;;;;;;;51.70;9.23;;;;;;;;;;5043402;28;20038;-62
2022/01/30 10:21:50;;;;;;;57.08;9.20;;;;;;;;;;5042573;28;20045;-60
2022/01/30 10:24:27;;;;;;;48.80;8.82;;;;;;;;;;5011363;28;20050;-61
2022/01/30 10:26:57;;;;;;;43.08;7.57;;;;;;;;;;5011478;28;20092;-61
2022/01/30 10:29:28;;;;;;;57.53;9.32;;;;;;;;;;5008537;28;20054;-61
2022/01/30 10:32:07;;;;;;;51.42;7.65;;;;;;;;;;4991843;28;20057;-60
2022/01/30 10:34:34;;;;;;;48.78;7.28;;;;;;;;;;5009706;28;20042;-61
2022/01/30 10:37:13;;;;;;;49.70;8.93;;;;;;;;;;5010407;28;20052;-62
2022/01/30 10:39:58;;;;;;;43.20;8.07;;;;;;;;;;5020100;28;20137;-61
2022/01/30 10:42:30;;;;;;;40.72;6.80;;;;;;;;;;5011654;28;20053;-61
2022/01/30 10:44:57;;;;;;;41.97;7.22;;;;;;;;;;4994872;28;20053;-60
2022/01/30 10:47:23;;;;;;;48.25;7.65;;;;;;;;;;5002415;28;20053;-60
2022/01/30 10:49:49;;;;;;;42.22;7.03;;;;;;;;;;5011296;28;20073;-60
2022/01/30 10:52:16;;;;;;;44.15;7.75;;;;;;;;;;5010657;28;20049;-61
2022/01/30 10:54:42;;;;;;;40.22;7.03;;;;;;;;;;5010949;28;20476;-60
2022/01/30 10:57:09;;;;;;;43.35;7.85;;;;;;;;;;4991636;28;20496;-61
2022/01/30 10:59:42;;;;;;;41.35;7.45;;;;;;;;;;5007269;28;20495;-61
2022/01/30 11:02:12;;;;;;;44.60;7.43;;;;;;;;;;5008577;28;20056;-61
2022/01/30 11:04:38;;;;;;;41.63;8.45;;;;;;;;;;5008277;28;20324;-61
2022/01/30 11:07:05;;;;;;;37.70;7.28;;;;;;;;;;4992614;28;20120;-61
2022/01/30 11:09:45;;;;;;;44.47;7.72;;;;;;;;;;5041802;28;20069;-61
2022/01/30 11:12:15;;;;;;;38.42;7.15;;;;;;;;;;5009389;28;20164;-61
2022/01/30 11:17:15;;;;;;;47.22;8.00;;;;;;;;;;5041194;28;20614;-61
2022/01/30 11:19:45;;;;;;;48.13;7.55;;;;;;;;;;5010135;28;20461;-61
2022/01/30 11:22:18;;;;;;;48.05;8.52;;;;;;;;;;5042050;28;20511;-61
2022/01/30 11:24:53;;;;;;;44.22;8.00;;;;;;;;;;5010361;28;20393;-61
2022/01/30 11:27:20;;;;;;;50.53;8.05;;;;;;;;;;5010335;28;20049;-61
2022/01/30 11:29:47;;;;;;;42.20;8.60;;;;;;;;;;4993800;28;20042;-61
2022/01/30 11:32:13;;;;;;;45.22;8.13;;;;;;;;;;4990562;28;20405;-62
2022/01/30 11:34:41;;;;;;;51.67;8.15;;;;;;;;;;5018236;28;20069;-60
2022/01/30 11:37:09;;;;;;;45.95;8.52;;;;;;;;;;5010298;28;20108;-61
2022/01/30 11:39:39;;;;;;;43.08;7.32;;;;;;;;;;5042377;28;20132;-62
2022/01/30 11:42:07;;;;;;;47.50;8.25;;;;;;;;;;5008258;28;20092;-61
2022/01/30 11:44:33;;;;;;;45.60;8.52;;;;;;;;;;5009185;28;20064;-61
2022/01/30 11:46:59;;;;;;;51.47;8.13;;;;;;;;;;5009872;28;20046;-61
2022/01/30 11:49:38;;;;;;;46.92;8.55;;;;;;;;;;5040739;28;20574;-62
2022/01/30 11:52:04;;;;;;;52.97;9.20;;;;;;;;;;5005583;28;20514;-63
2022/01/30 11:54:36;;;;;;;49.00;7.75;;;;;;;;;;5006711;28;20044;-62
2022/01/30 11:57:25;;;;;;;45.88;8.30;;;;;;;;;;5007749;28;20467;-62
2022/01/30 11:59:55;;;;;;;53.92;10.10;;;;;;;;;;4998097;28;20069;-63
2022/01/30 12:02:27;;;;;;;45.97;7.32;;;;;;;;;;5008324;28;20048;-62
2022/01/30 12:04:57;;;;;;;51.25;7.68;;;;;;;;;;4990421;28;20044;-62
2022/01/30 12:07:42;;;;;;;45.63;8.55;;;;;;;;;;5008378;28;20058;-63
2022/01/30 12:10:29;;;;;;;45.85;8.55;;;;;;;;;;5004539;28;20491;-63
2022/01/30 12:12:58;;;;;;;43.90;8.18;;;;;;;;;;5039984;28;20049;-63
2022/01/30 12:15:37;;;;;;;56.78;8.77;;;;;;;;;;5008011;28;20057;-62
2022/01/30 12:18:04;;;;;;;47.08;8.65;;;;;;;;;;5038516;28;20046;-63
2022/01/30 12:20:32;;;;;;;49.65;8.40;;;;;;;;;;5023660;28;20068;-62
2022/01/30 12:22:58;;;;;;;43.95;7.53;;;;;;;;;;5006608;28;20566;-62
2022/01/30 12:25:29;;;;;;;47.40;7.82;;;;;;;;;;5008979;28;20037;-62
2022/01/30 12:27:56;;;;;;;44.70;7.82;;;;;;;;;;5038878;28;20662;-63
2022/01/30 12:30:32;;;;;;;48.03;7.68;;;;;;;;;;5008453;28;20038;-62
2022/01/30 12:32:59;;;;;;;45.75;7.88;;;;;;;;;;5007080;28;20512;-62
2022/01/30 12:35:25;;;;;;;42.17;7.65;;;;;;;;;;4988559;28;20072;-60
2022/01/30 12:37:51;;;;;;;50.00;7.95;;;;;;;;;;5006024;28;21165;-63
2022/01/30 12:40:18;;;;;;;45.60;7.72;;;;;;;;;;5004393;28;20529;-62
2022/01/30 12:42:44;;;;;;;48.75;8.52;;;;;;;;;;5004094;28;20504;-63
2022/01/30 12:45:14;;;;;;;46.47;7.47;;;;;;;;;;5005236;28;20038;-63
2022/01/30 12:47:56;;;;;;;44.03;6.70;;;;;;;;;;5005155;28;20041;-63
2022/01/30 12:50:32;;;;;;;50.30;8.55;;;;;;;;;;5004141;28;20048;-63
2022/01/30 12:53:00;;;;;;;48.13;7.95;;;;;;;;;;5038640;28;20048;-61
2022/01/30 12:55:27;;;;;;;49.63;7.63;;;;;;;;;;5004781;28;20058;-62
2022/01/30 12:57:54;;;;;;;50.63;7.78;;;;;;;;;;5004403;28;20129;-61
2022/01/30 13:00:21;;;;;;;47.20;7.45;;;;;;;;;;5012415;28;20389;-61
2022/01/30 13:03:00;;;;;;;53.92;7.30;;;;;;;;;;5007466;28;20510;-62
2022/01/30 13:05:27;;;;;;;41.15;7.10;;;;;;;;;;5006094;28;20179;-62
2022/01/30 13:07:54;;;;;;;42.13;6.65;;;;;;;;;;5005182;28;20072;-63
2022/01/30 13:10:22;;;;;;;47.22;7.20;;;;;;;;;;5004062;28;20042;-61
2022/01/30 13:12:48;;;;;;;46.92;7.13;;;;;;;;;;4988515;28;20042;-62
2022/01/30 13:15:25;;;;;;;47.78;7.55;;;;;;;;;;5005952;28;20395;-63
2022/01/30 13:17:52;;;;;;;46.28;7.10;;;;;;;;;;5004079;28;20042;-62
2022/01/30 13:20:25;;;;;;;38.60;6.82;;;;;;;;;;5005230;28;20488;-62
2022/01/30 13:22:52;;;;;;;42.33;6.20;;;;;;;;;;5005698;28;20049;-63
2022/01/30 13:25:19;;;;;;;43.35;7.38;;;;;;;;;;5006847;28;20439;-63
2022/01/30 13:27:49;;;;;;;38.03;5.60;;;;;;;;;;5004014;28;20042;-63
2022/01/30 13:30:23;;;;;;;38.97;6.40;;;;;;;;;;5006136;28;20042;-62
2022/01/30 13:32:49;;;;;;;37.25;6.05;;;;;;;;;;5007335;28;20054;-62
2022/01/30 13:35:17;;;;;;;29.50;5.45;;;;;;;;;;5023925;28;20049;-62
2022/01/30 13:37:45;;;;;;;34.05;6.18;;;;;;;;;;5007922;28;20197;-62
2022/01/30 13:40:37;;;;;;;32.28;5.53;;;;;;;;;;5009107;28;20076;-61
2022/01/30 13:43:11;;;;;;;37.17;5.15;;;;;;;;;;5007711;28;20046;-62
2022/01/30 13:48:15;;;;;;;39.08;5.88;;;;;;;;;;5011224;28;20038;-62
2022/01/30 13:50:50;;;;;;;41.50;6.63;;;;;;;;;;5011783;28;20034;-62
2022/01/30 13:53:24;;;;;;;44.33;6.80;;;;;;;;;;5012891;28;20048;-63
2022/01/30 13:55:56;;;;;;;43.55;7.65;;;;;;;;;;5011469;28;20103;-62
2022/01/30 13:58:26;;;;;;;37.00;6.73;;;;;;;;;;4995347;28;20045;-61
2022/01/30 14:00:52;;;;;;;39.08;6.70;;;;;;;;;;5011496;28;20046;-62
2022/01/30 14:03:22;;;;;;;38.08;7.20;;;;;;;;;;5011825;28;20053;-62
2022/01/30 14:05:49;;;;;;;45.10;7.10;;;;;;;;;;5011332;28;20078;-61
2022/01/30 14:08:18;;;;;;;37.55;6.22;;;;;;;;;;5012746;28;20467;-62
2022/01/30 14:10:45;;;;;;;41.88;7.07;;;;;;;;;;5011163;28;20053;-62
2022/01/30 14:13:20;;;;;;;37.63;6.25;;;;;;;;;;5012677;28;20038;-62
2022/01/30 14:16:00;;;;;;;41.42;6.75;;;;;;;;;;5012750;28;20062;-63
2022/01/30 14:18:28;;;;;;;40.75;6.50;;;;;;;;;;5011010;28;20133;-62
2022/01/30 14:20:57;;;;;;;35.28;5.30;;;;;;;;;;4994290;28;20557;-63
2022/01/30 14:23:24;;;;;;;36.53;6.13;;;;;;;;;;5012452;28;21000;-62
2022/01/30 14:25:51;;;;;;;44.80;6.55;;;;;;;;;;5010675;28;20042;-63
2022/01/30 14:28:23;;;;;;;39.72;6.43;;;;;;;;;;5010078;28;20133;-62
2022/01/30 14:30:49;;;;;;;48.92;7.90;;;;;;;;;;5010970;28;20069;-62
2022/01/30 14:33:15;;;;;;;36.08;5.97;;;;;;;;;;5010416;28;20156;-63
2022/01/30 14:35:44;;;;;;;42.20;6.38;;;;;;;;;;5011664;28;20049;-62
2022/01/30 14:38:11;;;;;;;36.88;6.50;;;;;;;;;;5010243;28;20073;-63
2022/01/30 14:40:38;;;;;;;44.70;6.85;;;;;;;;;;5006736;28;20100;-61
2022/01/30 14:43:04;;;;;;;46.47;7.25;;;;;;;;;;4994508;28;20052;-61
2022/01/30 14:45:31;;;;;;;47.97;6.50;;;;;;;;;;5011749;28;20052;-61
2022/01/30 14:47:58;;;;;;;35.50;6.82;;;;;;;;;;5009716;28;20049;-62
2022/01/30 14:50:24;;;;;;;37.42;5.05;;;;;;;;;;5026463;28;20508;-61
2022/01/30 14:52:51;;;;;;;39.70;5.70;;;;;;;;;;5010183;28;20458;-62
2022/01/30 14:55:17;;;;;;;36.10;5.40;;;;;;;;;;5011361;28;20388;-62
2022/01/30 14:57:44;;;;;;;39.78;5.82;;;;;;;;;;5025936;28;20044;-61
2022/01/30 15:00:14;;;;;;;35.28;6.35;;;;;;;;;;5010141;28;20467;-60
2022/01/30 15:02:40;;;;;;;35.33;5.22;;;;;;;;;;5009909;28;20041;-61
2022/01/30 15:05:08;;;;;;;38.42;5.65;;;;;;;;;;5027325;28;20065;-62
2022/01/30 15:07:34;;;;;;;35.95;5.57;;;;;;;;;;5009911;28;20038;-61
2022/01/30 15:10:00;;;;;;;39.53;5.95;;;;;;;;;;5010515;28;20569;-61
2022/01/30 15:12:26;;;;;;;44.08;5.88;;;;;;;;;;5026728;28;20126;-61
2022/01/30 15:14:53;;;;;;;40.22;5.53;;;;;;;;;;5010810;28;20112;-62
2022/01/30 15:17:29;;;;;;;37.88;6.13;;;;;;;;;;5041256;28;20041;-61
2022/01/30 15:19:55;;;;;;;35.97;5.70;;;;;;;;;;5009423;28;20088;-61
2022/01/30 15:22:23;;;;;;;44.03;6.05;;;;;;;;;;5011286;28;20053;-61
2022/01/30 15:24:52;;;;;;;40.58;5.78;;;;;;;;;;5011568;28;20043;-61
2022/01/30 15:27:21;;;;;;;45.05;6.25;;;;;;;;;;5012073;28;20081;-61
2022/01/30 15:29:47;;;;;;;39.72;5.53;;;;;;;;;;5010428;28;20656;-61
2022/01/30 15:32:13;;;;;;;47.58;7.07;;;;;;;;;;5009044;28;20077;-60